Time;durP1;ratioP1;P1;durP2;ratioP2;P2;SDS_P1;SDS_P2;PMS_P1;PMS_P2;Temp;Humidity;BMP_temperature;BMP_pressure;BME280_temperature;BME280_humidity;BME280_pressure;Samples;Min_cycle;Max_cycle;Signal;HPM_P1;HPM_P2
2022/09/13 00:01:15;;;;;;;5.70;4.50;;;;;;;16.69;57.81;99942.83;2049736;95;25808;-80
2022/09/13 00:04:47;;;;;;;5.83;4.72;;;;;;;16.68;57.86;99952.06;2035115;96;25809;-79
2022/09/13 00:08:19;;;;;;;4.80;4.40;;;;;;;16.66;57.88;99953.83;2043568;94;25803;-79
2022/09/13 00:12:19;;;;;;;8.53;4.85;;;;;;;16.64;57.93;99949.91;2062135;94;25820;-79
2022/09/13 00:16:43;;;;;;;;;;;;;;;;;;;;;
2022/09/13 00:20:36;;;;;;;5.75;4.22;;;;;;;16.61;57.87;99949.05;2112754;92;26508;-79
2022/09/13 00:24:19;;;;;;;4.87;4.37;;;;;;;16.57;57.93;99944.27;2113842;89;25898;-79
2022/09/13 00:27:55;;;;;;;5.05;4.55;;;;;;;16.54;57.92;99937.70;2059222;94;25824;-79
2022/09/13 00:31:33;;;;;;;7.10;5.00;;;;;;;16.51;57.99;99946.48;2056005;92;26113;-79
2022/09/13 00:35:28;;;;;;;4.47;4.17;;;;;;;16.51;57.98;99942.55;2083536;92;25690;-80
2022/09/13 00:39:19;;;;;;;9.98;5.20;;;;;;;16.50;57.99;99948.70;2071718;92;27019;-79
2022/09/13 00:42:53;;;;;;;5.83;4.97;;;;;;;16.46;57.96;99943.45;2072011;92;25938;-79
2022/09/13 00:46:48;;;;;;;8.08;5.92;;;;;;;16.45;58.00;99943.03;2092653;92;25838;-79
2022/09/13 00:50:50;;;;;;;6.90;6.20;;;;;;;16.44;58.01;99944.79;2087869;92;25887;-79
2022/09/13 00:54:36;;;;;;;8.10;5.47;;;;;;;16.43;58.01;99948.73;2078281;92;25685;-79
2022/09/13 00:58:41;;;;;;;6.35;5.75;;;;;;;16.40;57.98;99939.55;2081029;92;25863;-79
2022/09/13 01:02:47;;;;;;;6.00;5.50;;;;;;;16.38;57.98;99941.33;2091783;92;25741;-79
2022/09/13 01:07:01;;;;;;;6.53;5.47;;;;;;;16.38;57.98;99946.14;2087437;92;25834;-79
2022/09/13 01:15:15;;;;;;;6.10;5.20;;;;;;;16.34;57.90;99941.80;1948523;97;26049;-79
2022/09/13 01:18:53;;;;;;;7.58;5.30;;;;;;;16.32;57.91;99938.29;1948771;98;25803;-79
2022/09/13 01:23:11;;;;;;;4.95;4.47;;;;;;;16.30;57.90;99940.08;1954720;97;25771;-79
2022/09/13 01:27:23;;;;;;;5.47;4.97;;;;;;;16.27;57.86;99934.83;1896417;101;25872;-79
2022/09/13 01:31:47;;;;;;;5.83;5.30;;;;;;;16.22;57.84;99936.16;1897036;101;25923;-79
2022/09/13 01:35:54;;;;;;;6.12;4.75;;;;;;;16.18;57.87;99929.62;1903031;101;25415;-79
2022/09/13 01:39:48;;;;;;;5.67;5.17;;;;;;;16.14;57.92;99931.84;1907577;101;25844;-78
2022/09/13 01:48:42;;;;;;;9.80;4.55;;;;;;;16.11;57.90;99930.55;1790921;106;25759;-79
2022/09/13 01:57:28;;;;;;;6.17;4.42;;;;;;;16.05;57.87;99924.87;2017502;96;25863;-79
2022/09/13 02:01:28;;;;;;;;;;;;;;;;;;;;;
2022/09/13 02:05:06;;;;;;;4.90;4.47;;;;;;;15.99;57.87;99917.02;2101527;93;25775;-79
2022/09/13 02:09:43;;;;;;;;;;;;;;;;;;;;;
2022/09/13 02:13:26;;;;;;;7.72;5.10;;;;;;;15.92;57.86;99919.25;2198310;87;25962;-78
2022/09/13 02:22:17;;;;;;;;;;;;;;;;;;;;;
2022/09/13 02:26:06;;;;;;;4.78;4.35;;;;;;;15.78;57.89;99908.38;2142480;91;26006;-78
2022/09/13 02:29:53;;;;;;;;;;;;;;;;;;;;;
2022/09/13 02:34:02;;;;;;;6.28;4.72;;;;;;;15.73;57.87;99902.73;1972418;99;25806;-78
2022/09/13 02:37:35;;;;;;;5.65;5.03;;;;;;;15.72;57.88;99898.33;1990083;97;25902;-78
2022/09/13 02:42:05;;;;;;;5.37;4.87;;;;;;;15.68;57.89;99890.03;1978704;98;34924;-78
2022/09/13 02:45:56;;;;;;;;;;;;;;;;;;;;;
2022/09/13 02:50:04;;;;;;;;;;;;;;;;;;;;;
2022/09/13 02:54:06;;;;;;;5.17;4.67;;;;;;;15.61;58.09;99889.61;1958912;98;26382;-79
2022/09/13 03:02:27;;;;;;;6.72;5.40;;;;;;;15.59;58.06;99888.28;2043816;88;26038;-79
2022/09/13 03:06:12;;;;;;;6.53;5.58;;;;;;;15.56;58.07;99881.31;2176529;88;26244;-79
2022/09/13 03:10:21;;;;;;;7.10;4.75;;;;;;;15.54;58.10;99879.12;2192080;88;25864;-79
2022/09/13 03:14:57;;;;;;;7.30;5.37;;;;;;;15.53;58.08;99876.06;2343816;83;25784;-79
2022/09/13 03:19:17;;;;;;;5.22;4.50;;;;;;;15.52;58.06;99870.39;2337932;83;26004;-80
2022/09/13 03:23:09;;;;;;;7.83;5.58;;;;;;;15.49;58.04;99869.09;2345044;82;26009;-79
2022/09/13 03:27:18;;;;;;;7.30;5.17;;;;;;;15.47;58.04;99865.58;2359309;82;25707;-79
2022/09/13 03:31:26;;;;;;;8.25;5.58;;;;;;;15.46;57.98;99865.16;2360052;83;26385;-79
2022/09/13 03:35:35;;;;;;;8.90;5.37;;;;;;;15.45;57.85;99864.70;2342825;83;25671;-80
2022/09/13 03:39:35;;;;;;;10.05;6.08;;;;;;;15.42;57.82;99861.22;2363280;83;25764;-80
2022/09/13 03:43:20;;;;;;;7.35;5.25;;;;;;;15.37;57.76;99851.19;2245228;87;26563;-79
2022/09/13 03:46:57;;;;;;;5.10;4.55;;;;;;;15.35;57.75;99851.17;2243089;87;26118;-79
2022/09/13 03:50:26;;;;;;;7.60;4.83;;;;;;;15.33;57.66;99856.45;2248782;86;25861;-79
2022/09/13 03:54:21;;;;;;;5.58;5.08;;;;;;;15.31;57.61;99849.01;2255080;86;25890;-79
2022/09/13 03:58:28;;;;;;;7.45;5.12;;;;;;;15.30;57.56;99845.09;2241742;86;25891;-79
2022/09/13 04:02:00;;;;;;;5.20;4.70;;;;;;;15.28;57.50;99845.52;2240539;87;26032;-79
2022/09/13 04:05:34;;;;;;;6.70;4.70;;;;;;;15.23;57.49;99839.44;2247467;87;26067;-80
2022/09/13 04:09:01;;;;;;;6.80;4.72;;;;;;;15.19;57.51;99840.33;2244374;86;25861;-80
2022/09/13 04:12:40;;;;;;;7.75;4.85;;;;;;;15.18;57.48;99839.43;2256849;84;25702;-79
2022/09/13 04:16:17;;;;;;;11.80;6.40;;;;;;;15.18;57.44;99832.00;2337910;83;25722;-79
2022/09/13 04:19:43;;;;;;;5.22;4.72;;;;;;;15.18;57.38;99835.94;2343072;83;25785;-79
2022/09/13 04:23:29;;;;;;;5.62;5.12;;;;;;;15.16;57.33;99838.58;2359956;82;25662;-80
2022/09/13 04:26:59;;;;;;;7.87;5.03;;;;;;;15.16;57.27;99837.27;2355642;82;25678;-80
2022/09/13 04:30:32;;;;;;;5.10;4.60;;;;;;;15.15;57.21;99843.38;2344838;83;26013;-79
2022/09/13 04:33:59;;;;;;;5.60;5.10;;;;;;;15.12;57.22;99839.48;2344229;83;25687;-79
2022/09/13 04:37:34;;;;;;;7.03;5.03;;;;;;;15.09;57.22;99844.30;2341400;83;25814;-79
2022/09/13 04:41:10;;;;;;;5.40;4.87;;;;;;;15.10;57.27;99844.72;2356192;83;25602;-79
2022/09/13 04:44:41;;;;;;;6.78;5.33;;;;;;;15.11;57.22;99842.52;2334386;83;25836;-78
2022/09/13 04:48:23;;;;;;;6.17;5.67;;;;;;;15.14;57.19;99844.71;2336442;83;25701;-78
2022/09/13 04:52:05;;;;;;;5.55;5.05;;;;;;;15.14;57.17;99846.89;2346134;83;25781;-79
2022/09/13 04:55:35;;;;;;;5.50;4.92;;;;;;;15.16;57.15;99842.97;2328125;83;25655;-78
2022/09/13 04:59:13;;;;;;;5.40;4.90;;;;;;;15.16;57.08;99846.46;2345017;83;26520;-79
2022/09/13 05:02:56;;;;;;;7.25;5.03;;;;;;;15.16;57.12;99846.46;2340381;83;25828;-79
2022/09/13 05:06:35;;;;;;;5.67;5.08;;;;;;;15.17;57.15;99833.75;2297162;83;25655;-78
2022/09/13 05:10:10;;;;;;;13.22;5.67;;;;;;;15.19;57.19;99846.45;2346097;82;25696;-78
2022/09/13 05:13:38;;;;;;;6.10;5.03;;;;;;;15.23;57.21;99841.61;2335564;83;25785;-79
2022/09/13 05:17:11;;;;;;;6.03;5.42;;;;;;;15.27;57.19;99834.15;2354042;82;25649;-78
2022/09/13 05:20:39;;;;;;;7.55;5.10;;;;;;;15.31;57.22;99833.69;2205510;86;25854;-78
2022/09/13 05:24:13;;;;;;;5.83;5.08;;;;;;;15.32;57.23;99832.80;2209428;87;25883;-78
2022/09/13 05:27:57;;;;;;;;;;;;;;;;;;;;;
2022/09/13 05:31:36;;;;;;;6.20;4.70;;;;;;;15.39;57.30;99837.59;2221870;86;25739;-79
2022/09/13 05:35:08;;;;;;;7.15;4.72;;;;;;;15.42;57.30;99842.39;2220883;85;25733;-80
2022/09/13 05:38:43;;;;;;;7.37;5.25;;;;;;;15.48;57.28;99843.67;2265463;86;25789;-80
2022/09/13 05:42:48;;;;;;;5.30;4.80;;;;;;;15.54;57.26;99838.84;2216583;86;25951;-80
2022/09/13 05:46:18;;;;;;;5.92;5.22;;;;;;;15.58;57.29;99843.19;2241183;86;26020;-79
2022/09/13 05:49:54;;;;;;;8.08;5.05;;;;;;;15.62;57.34;99825.66;2234469;86;25707;-78
2022/09/13 05:53:28;;;;;;;5.87;5.17;;;;;;;15.69;57.35;99824.35;2243401;86;25841;-79
2022/09/13 05:57:02;;;;;;;5.85;5.10;;;;;;;15.76;57.36;99823.84;2234349;86;25836;-78
2022/09/13 06:00:26;;;;;;;5.58;4.85;;;;;;;15.81;57.35;99810.24;2219664;87;25642;-79
2022/09/13 06:03:58;;;;;;;6.33;5.30;;;;;;;15.85;57.37;99808.02;2230463;87;25748;-79
2022/09/13 06:07:22;;;;;;;6.65;5.20;;;;;;;15.92;57.39;99810.16;2214005;86;25749;-78
2022/09/13 06:11:12;;;;;;;7.28;5.60;;;;;;;16.00;57.40;99805.73;2224876;86;25979;-79
2022/09/13 06:15:03;;;;;;;9.13;6.40;;;;;;;16.08;57.39;99809.61;2148838;88;25372;-79
2022/09/13 06:18:39;;;;;;;6.62;6.05;;;;;;;16.16;57.43;99798.58;2231097;86;25816;-79
2022/09/13 06:22:35;;;;;;;7.35;5.70;;;;;;;16.22;57.46;99805.97;2267180;86;25869;-80
2022/09/13 06:26:18;;;;;;;6.35;5.75;;;;;;;16.30;57.50;99808.55;2272348;86;25761;-77
2022/09/13 06:30:05;;;;;;;9.65;7.42;;;;;;;16.39;57.57;99808.45;2098964;92;45530;-79
2022/09/13 06:33:42;;;;;;;8.88;5.37;;;;;;;16.47;57.58;99805.33;2119449;92;25838;-80
2022/09/13 06:40:54;;;;;;;8.03;5.75;;;;;;;16.62;57.65;99814.81;2069116;93;25889;-80
2022/09/13 06:44:22;;;;;;;10.60;6.08;;;;;;;16.68;57.76;99806.86;1959529;98;27670;-80
2022/09/13 06:47:56;;;;;;;;;;;;;;;16.79;57.73;99811.17;1961343;97;26285;-79
2022/09/13 06:51:28;;;;;;;9.98;6.05;;;;;;;16.88;57.76;99808.00;1930034;100;25840;-80
2022/09/13 06:55:02;;;;;;;7.85;6.30;;;;;;;16.97;57.74;99804.36;1914507;100;26542;-79
2022/09/13 06:58:42;;;;;;;;;;;;;;;;;;;;;
2022/09/13 07:02:07;;;;;;;6.20;5.70;;;;;;;17.25;57.65;99800.97;1935008;99;25840;-80
2022/09/13 07:05:43;;;;;;;6.92;5.47;;;;;;;17.39;57.55;99802.10;1949219;99;25982;-79
2022/09/13 07:09:12;;;;;;;10.50;6.00;;;;;;;17.53;57.40;99802.77;1934526;100;26098;-79
2022/09/13 07:13:02;;;;;;;7.17;5.42;;;;;;;17.73;57.24;99806.44;2007766;97;26453;-81
2022/09/13 07:16:39;;;;;;;6.47;4.85;;;;;;;20.01;56.12;99801.20;1966006;99;25749;-81
2022/09/13 07:20:22;;;;;;;8.43;5.05;;;;;;;22.98;52.18;99810.89;1975740;97;26569;-82
2022/09/13 07:27:53;;;;;;;7.92;4.45;;;;;;;27.64;44.99;99817.56;1995396;97;26030;-80
2022/09/13 07:31:32;;;;;;;;;;;;;;;29.71;41.89;99821.28;2018006;96;26057;-81
2022/09/13 07:35:06;;;;;;;6.55;3.75;;;;;;;31.46;38.95;99826.42;2033254;95;25973;-82
2022/09/13 07:38:39;;;;;;;13.50;3.83;;;;;;;32.99;37.31;99833.47;2003450;96;25352;-80
2022/09/13 07:42:07;;;;;;;6.97;3.00;;;;;;;34.37;35.25;99833.95;2013048;96;25883;-80
2022/09/13 07:45:43;;;;;;;3.92;2.60;;;;;;;35.73;33.55;99838.86;1990758;97;25820;-81
2022/09/13 07:49:41;;;;;;;5.47;2.80;;;;;;;36.91;31.80;99834.73;2104182;91;25843;-83
2022/09/13 07:53:09;;;;;;;3.05;2.20;;;;;;;37.95;30.29;99838.22;2095232;92;26196;-83
2022/09/13 07:56:50;;;;;;;2.15;1.80;;;;;;;38.99;28.83;99839.02;2070727;94;25875;-81
2022/09/13 08:00:26;;;;;;;2.98;2.02;;;;;;;39.77;27.59;99844.41;2021425;96;25739;-81
2022/09/13 08:04:16;;;;;;;3.58;2.02;;;;;;;40.49;26.67;99839.27;2008101;96;25985;-82
2022/09/13 08:07:59;;;;;;;6.50;1.95;;;;;;;41.11;24.21;99839.25;2044328;94;25872;-84
2022/09/13 08:11:48;;;;;;;3.90;2.25;;;;;;;40.05;21.31;99830.48;2041056;96;25732;-84
2022/09/13 08:15:24;;;;;;;7.65;2.42;;;;;;;38.55;21.51;99816.37;2022826;97;25791;-82
2022/09/13 08:19:03;;;;;;;2.25;1.77;;;;;;;37.72;21.79;99807.83;2009788;97;25774;-83
2022/09/13 08:22:38;;;;;;;5.45;2.08;;;;;;;37.80;22.62;99806.59;1997794;97;25871;-85
2022/09/13 08:26:05;;;;;;;5.37;2.30;;;;;;;37.37;21.72;99804.50;1991537;98;25709;-82
2022/09/13 08:29:41;;;;;;;4.92;2.10;;;;;;;36.98;22.17;99799.71;2001546;97;25959;-83
2022/09/13 08:33:26;;;;;;;5.78;1.85;;;;;;;36.38;21.84;99798.06;2011170;96;25806;-84
2022/09/13 08:36:59;;;;;;;4.60;1.50;;;;;;;35.74;21.85;99785.47;1960540;99;25820;-84
2022/09/13 08:40:27;;;;;;;3.33;1.72;;;;;;;35.74;21.85;99785.47;1969315;98;26282;-84
2022/09/13 08:44:51;;;;;;;3.87;1.40;;;;;;;35.55;22.81;99786.30;1980877;94;25395;-81
2022/09/13 08:48:29;;;;;;;1.95;1.00;;;;;;;35.80;22.41;99783.56;2022458;96;25729;-84
2022/09/13 08:57:06;;;;;;;4.22;1.27;;;;;;;35.80;22.40;99780.34;1963939;97;26058;-83
2022/09/13 09:00:43;;;;;;;3.70;0.90;;;;;;;35.36;22.47;99778.92;1987764;96;26379;-84
2022/09/13 09:04:33;;;;;;;2.25;0.80;;;;;;;34.93;21.85;99771.39;1999724;97;26121;-84
2022/09/13 09:08:37;;;;;;;1.25;1.00;;;;;;;34.09;21.92;99766.44;1997626;97;25753;-85
2022/09/13 09:12:34;;;;;;;5.55;1.10;;;;;;;33.30;23.35;99768.41;1975854;98;25855;-84
2022/09/13 09:16:14;;;;;;;3.27;1.00;;;;;;;33.19;24.11;99756.27;1980470;96;25779;-86
2022/09/13 09:20:25;;;;;;;3.60;1.40;;;;;;;32.86;24.07;99750.69;2022166;95;25772;-84
2022/09/13 09:24:15;;;;;;;4.80;0.88;;;;;;;31.91;23.96;99752.62;2093389;91;25749;-83
2022/09/13 09:27:45;;;;;;;7.60;1.10;;;;;;;30.98;24.43;99738.74;2084413;93;25745;-83
2022/09/13 09:31:39;;;;;;;;;;;;;;;;;;;;;
2022/09/13 09:35:23;;;;;;;2.87;1.22;;;;;;;29.94;26.85;99722.19;2064109;93;25863;-82
2022/09/13 09:39:17;;;;;;;2.08;1.40;;;;;;;30.38;26.87;99729.94;2065857;93;25846;-84
2022/09/13 09:42:53;;;;;;;1.42;1.10;;;;;;;30.52;27.04;99727.63;2042763;95;25889;-84
2022/09/13 09:46:23;;;;;;;2.65;1.40;;;;;;;30.16;26.73;99726.47;2036103;95;25858;-81
2022/09/13 09:50:18;;;;;;;1.05;0.90;;;;;;;29.94;27.95;99716.33;2061621;94;25968;-81
2022/09/13 09:54:01;;;;;;;2.37;1.70;;;;;;;29.60;26.91;99715.03;2059932;94;26001;-80
2022/09/13 09:58:05;;;;;;;1.47;0.90;;;;;;;29.18;27.11;99700.22;2041399;94;25779;-81
2022/09/13 10:01:56;;;;;;;3.33;1.15;;;;;;;29.09;27.13;99696.80;2042985;94;26355;-80
2022/09/13 10:06:24;;;;;;;2.77;1.10;;;;;;;28.59;27.51;99683.38;2054931;93;25769;-81
2022/09/13 10:14:57;;;;;;;1.05;0.80;;;;;;;28.72;28.62;99676.74;1978654;98;26561;-80
2022/09/13 10:18:31;;;;;;;2.90;0.93;;;;;;;28.04;28.39;99664.39;1980398;98;25971;-81
2022/09/13 10:22:12;;;;;;;3.85;0.95;;;;;;;27.62;29.12;99665.96;2004908;95;26404;-85
2022/09/13 10:25:57;;;;;;;2.92;1.05;;;;;;;26.75;29.49;99665.89;2050763;94;25811;-81
2022/09/13 10:29:44;;;;;;;1.47;0.90;;;;;;;25.48;30.50;99666.21;1989060;97;25837;-81
2022/09/13 10:33:29;;;;;;;2.70;1.32;;;;;;;24.80;31.86;99665.41;1949966;99;26033;-81
2022/09/13 10:38:04;;;;;;;6.87;0.90;;;;;;;24.83;32.48;99650.60;1873172;103;26019;-82
2022/09/13 10:41:14;;;;;;;2.63;1.60;;;;;;;25.25;33.33;99644.22;1828922;106;25904;-82
2022/09/13 10:44:59;;;;;;;;;;;;;;;25.14;32.71;99642.52;1801792;106;26423;-80
2022/09/13 10:48:54;;;;;;;4.22;1.15;;;;;;;24.64;33.27;99635.09;1825174;104;25854;-82
2022/09/13 10:52:57;;;;;;;1.45;1.35;;;;;;;24.27;33.84;99627.41;1874005;103;25906;-81
2022/09/13 10:56:38;;;;;;;5.40;1.10;;;;;;;24.77;33.98;99621.56;1872739;103;25762;-81
2022/09/13 11:13:55;;;;;;;2.37;0.95;;;;;;;23.83;35.17;99622.67;2018519;93;25975;-80
2022/09/13 11:22:38;;;;;;;3.15;1.70;;;;;;;23.12;36.02;99609.64;2037130;95;25844;-80
2022/09/13 11:27:06;;;;;;;2.15;1.22;;;;;;;22.98;36.48;99603.98;2053680;94;25873;-82
2022/09/13 11:30:35;;;;;;;12.68;2.08;;;;;;;22.91;36.94;99598.02;2066416;93;26200;-80
2022/09/13 11:34:39;;;;;;;3.77;1.30;;;;;;;22.91;37.34;99600.67;1968051;99;25917;-80
2022/09/13 12:00:07;;;;;;;3.77;1.17;;;;;;;22.82;38.48;99574.48;1874765;102;25853;-82
2022/09/13 12:19:43;;;;;;;2.08;1.22;;;;;;;22.34;40.55;99519.22;1840849;104;25893;-80
2022/09/13 12:23:35;;;;;;;3.58;1.10;;;;;;;22.09;41.22;99513.92;1898451;101;26053;-81
2022/09/13 12:27:30;;;;;;;1.98;1.20;;;;;;;22.09;41.43;99507.29;1932951;97;26121;-81
2022/09/13 12:36:00;;;;;;;4.78;1.62;;;;;;;21.60;42.38;99490.97;1969796;99;26086;-81
2022/09/13 12:45:25;;;;;;;8.33;1.87;;;;;;;21.21;43.57;99488.31;1904192;101;26226;-82
2022/09/13 13:11:34;;;;;;;10.80;2.37;;;;;;;20.56;46.73;99467.98;1815365;107;26008;-86
2022/09/13 13:19:55;;;;;;;2.90;2.15;;;;;;;20.33;47.49;99455.42;1763124;109;31135;-85
2022/09/13 13:24:09;;;;;;;9.65;2.20;;;;;;;20.20;48.09;99450.97;1776939;108;25973;-84
2022/09/13 13:32:40;;;;;;;;;;;;;;;;;;;;;
2022/09/13 13:36:51;;;;;;;;;;;;;;;;;;;;;
2022/09/13 13:40:31;;;;;;;6.12;2.95;;;;;;;20.13;48.80;99427.80;1897792;103;26073;-83
2022/09/13 13:49:15;;;;;;;;;;;;;;;;;;;;;
2022/09/13 13:53:19;;;;;;;;;;;;;;;;;;;;;
2022/09/13 14:02:35;;;;;;;;;;;;;;;;;;;;;
2022/09/13 14:11:33;;;;;;;4.33;2.10;;;;;;;19.87;50.12;99422.41;1982866;98;26036;-85
2022/09/13 14:24:50;;;;;;;;;;;;;;;;;;;;;
2022/09/13 14:28:34;;;;;;;4.08;2.33;;;;;;;19.71;50.35;99381.90;1834193;104;25435;-87
2022/09/13 14:32:14;;;;;;;2.05;1.80;;;;;;;19.72;50.57;99379.66;1795099;107;26153;-85
2022/09/13 14:45:17;;;;;;;7.67;2.22;;;;;;;19.83;50.71;99368.75;1824271;108;25852;-81
2022/09/13 14:49:37;;;;;;;9.53;2.77;;;;;;;19.87;50.82;99365.09;1818914;107;25892;-82
2022/09/13 14:53:40;;;;;;;3.27;2.50;;;;;;;19.83;50.89;99362.14;1818950;107;26065;-81
2022/09/13 14:58:18;;;;;;;;;;;;;;;;;;;;;
2022/09/13 15:01:55;;;;;;;9.03;2.42;;;;;;;19.73;51.30;99355.39;1831925;106;25827;-81
2022/09/13 15:06:17;;;;;;;;;;;;;;;;;;;;;
2022/09/13 15:09:51;;;;;;;6.95;2.83;;;;;;;19.64;51.82;99342.02;1802766;109;25604;-82
2022/09/13 15:13:41;;;;;;;5.62;2.10;;;;;;;19.60;51.89;99345.59;1782256;109;25930;-82
2022/09/13 15:18:13;;;;;;;5.30;2.05;;;;;;;19.56;52.10;99335.57;1786211;108;25881;-83
2022/09/13 15:22:42;;;;;;;8.35;3.50;;;;;;;19.50;52.21;99332.25;1780801;109;25880;-82
2022/09/13 15:31:29;;;;;;;3.75;1.80;;;;;;;19.46;52.29;99333.25;1841181;106;25950;-84
2022/09/13 15:40:38;;;;;;;3.80;2.22;;;;;;;19.38;52.08;99327.34;1821101;106;26147;-83
2022/09/13 15:48:55;;;;;;;6.65;2.10;;;;;;;19.27;52.28;99317.05;1795546;107;25892;-83
2022/09/13 15:52:54;;;;;;;6.40;2.27;;;;;;;19.24;52.38;99315.39;1750384;110;26102;-84
2022/09/13 16:13:57;;;;;;;9.68;3.42;;;;;;;19.25;52.86;99301.26;1752362;110;26169;-84
2022/09/13 16:31:26;;;;;;;6.75;2.62;;;;;;;19.24;53.68;99279.72;1708353;113;26530;-83
2022/09/13 16:39:34;;;;;;;6.47;2.67;;;;;;;19.02;54.40;99267.58;1639684;118;26093;-82
2022/09/13 16:44:04;;;;;;;4.33;3.05;;;;;;;19.00;55.04;99266.77;1659434;116;26688;-82
2022/09/13 16:49:09;;;;;;;;;;;;;;;;;;;;;
2022/09/13 17:06:45;;;;;;;7.70;3.08;;;;;;;18.76;56.53;99268.75;2197063;88;25837;-85
2022/09/13 17:10:47;;;;;;;11.78;3.02;;;;;;;18.74;56.62;99263.53;2147377;91;26427;-86
2022/09/13 17:14:20;;;;;;;3.70;3.15;;;;;;;18.71;56.94;99253.02;2145061;89;25875;-86
2022/09/13 17:22:39;;;;;;;8.75;3.27;;;;;;;18.65;57.59;99255.36;2007158;97;25911;-80
2022/09/13 17:30:45;;;;;;;;;;;;;;;;;;;;;
2022/09/13 17:34:26;;;;;;;3.70;3.08;;;;;;;18.50;57.99;99244.38;1899253;103;25840;-76
2022/09/13 17:38:06;;;;;;;7.58;3.02;;;;;;;18.60;58.03;99244.54;1903101;103;25849;-76
2022/09/13 17:41:50;;;;;;;5.45;3.37;;;;;;;18.91;57.76;99251.64;1917037;101;25814;-79
2022/09/13 17:45:48;;;;;;;4.20;3.80;;;;;;;19.15;57.28;99244.31;1927212;100;25954;-77
2022/09/13 17:53:24;;;;;;;5.97;3.35;;;;;;;19.38;56.59;99246.27;1984365;98;25883;-78
2022/09/13 17:57:58;;;;;;;6.03;3.22;;;;;;;19.45;56.38;99245.17;1909292;101;25771;-77
2022/09/13 18:03:19;;;;;;;4.42;3.55;;;;;;;19.57;56.20;99242.59;2651797;74;25479;-77
2022/09/13 18:06:43;;;;;;;10.32;3.47;;;;;;;19.54;55.87;99242.25;2659354;74;25579;-77
2022/09/13 18:10:34;;;;;;;4.47;3.70;;;;;;;19.56;55.82;99251.44;2655910;74;25596;-76
2022/09/13 18:14:56;;;;;;;8.08;3.67;;;;;;;19.62;55.69;99250.39;2606251;74;25651;-76
2022/09/13 18:18:18;;;;;;;5.33;4.47;;;;;;;19.69;55.53;99248.86;2580324;76;25646;-78
2022/09/13 18:29:55;;;;;;;3.75;3.45;;;;;;;19.73;55.10;99231.97;2279090;85;25862;-78
2022/09/13 18:33:27;;;;;;;7.58;3.75;;;;;;;19.74;55.00;99231.08;2201083;88;25391;-77
2022/09/13 18:46:10;;;;;;;5.60;4.03;;;;;;;19.71;54.94;99218.38;2025149;97;26437;-79
2022/09/13 18:49:56;;;;;;;4.37;3.52;;;;;;;19.70;54.94;99212.23;2008283;97;26625;-78
2022/09/13 18:54:01;;;;;;;4.17;3.87;;;;;;;19.68;54.91;99205.29;1993708;97;25434;-77
2022/09/13 18:58:14;;;;;;;;;;;;;;;;;;;;;
2022/09/13 19:01:43;;;;;;;7.80;4.42;;;;;;;19.68;54.89;99190.28;1933937;100;26074;-79
2022/09/13 19:05:07;;;;;;;5.58;4.17;;;;;;;19.68;54.97;99190.28;1934786;102;25820;-78
2022/09/13 19:08:28;;;;;;;7.03;3.98;;;;;;;19.68;55.05;99183.67;1935514;100;25931;-78
2022/09/13 19:11:55;;;;;;;11.90;4.50;;;;;;;19.61;55.07;99182.12;1918580;100;25799;-78
2022/09/13 19:15:22;;;;;;;7.22;4.95;;;;;;;19.61;55.14;99179.47;1934845;100;26533;-77
2022/09/13 19:22:45;;;;;;;6.87;4.53;;;;;;;19.57;55.31;99183.11;2039681;94;25858;-77
2022/09/13 19:26:46;;;;;;;4.20;3.65;;;;;;;19.59;55.32;99176.86;2061139;94;25918;-77
2022/09/13 19:30:20;;;;;;;5.15;4.65;;;;;;;19.54;55.35;99173.52;2014066;96;25850;-79
2022/09/13 19:37:39;;;;;;;4.50;4.10;;;;;;;19.49;55.52;99178.08;1973493;98;25976;-78
2022/09/13 19:46:21;;;;;;;5.30;4.37;;;;;;;19.39;55.91;99169.17;1938574;101;26460;-78
2022/09/13 19:50:08;;;;;;;7.67;3.95;;;;;;;19.40;56.04;99157.67;1912472;100;25877;-80
2022/09/13 19:53:45;;;;;;;4.25;3.85;;;;;;;19.48;56.03;99152.56;1910472;103;26383;-76
2022/09/13 19:57:30;;;;;;;5.58;4.37;;;;;;;19.46;56.14;99147.77;1915214;102;25856;-79
2022/09/13 20:01:45;;;;;;;3.70;3.40;;;;;;;19.44;56.25;99146.09;1872240;101;26191;-79
2022/09/13 20:12:47;;;;;;;;;;;;;;;;;;;;;
2022/09/13 20:21:07;;;;;;;;;;;;;;;;;;;;;
2022/09/13 20:24:41;;;;;;;5.30;3.87;;;;;;;19.21;56.87;99136.27;1839887;106;25728;-79
2022/09/13 20:32:52;;;;;;;;;;;;;;;;;;;;;
2022/09/13 20:36:23;;;;;;;4.70;3.95;;;;;;;19.17;57.08;99123.63;1838343;106;25904;-78
2022/09/13 20:40:27;;;;;;;;;;;;;;;;;;;;;
2022/09/13 21:00:54;;;;;;;3.60;3.30;;;;;;;19.54;56.93;99102.15;1782014;108;26175;-82
2022/09/13 21:04:56;;;;;;;;;;;;;;;;;;;;;
2022/09/13 21:22:40;;;;;;;4.87;3.87;;;;;;;19.87;56.18;99101.06;1774104;110;26123;-82
2022/09/13 21:31:32;;;;;;;;;;;;;;;;;;;;;
2022/09/13 21:47:23;;;;;;;5.80;4.03;;;;;;;19.96;56.62;99087.53;1853750;106;26020;-85
2022/09/13 21:57:45;;;;;;;;;;;;;;;;;;;;;
2022/09/13 22:02:13;;;;;;;;;;;;;;;;;;;;;
2022/09/13 22:28:59;;;;;;;3.95;2.77;;;;;;;20.06;58.24;99053.22;1802145;109;25851;-81
2022/09/13 22:32:40;;;;;;;;;;;;;;;20.04;58.44;99048.42;1791508;109;25860;-79
2022/09/13 22:36:52;;;;;;;3.58;3.27;;;;;;;20.04;58.67;99047.10;1795404;110;25536;-79
2022/09/13 22:40:48;;;;;;;3.40;3.10;;;;;;;20.00;58.68;99038.41;1794670;108;25942;-79
2022/09/13 22:44:36;;;;;;;3.50;3.20;;;;;;;20.00;58.84;99035.77;1801617;108;25884;-78
2022/09/13 22:48:24;;;;;;;;;;;;;;;;;;;;;
2022/09/13 22:52:07;;;;;;;;;;;;;;;19.99;59.22;99037.16;1738227;109;25456;-79
2022/09/13 22:55:46;;;;;;;;;;;;;;;;;;;;;
2022/09/13 22:59:17;;;;;;;4.78;3.00;;;;;;;20.01;59.50;99033.98;1715951;113;26280;-79
2022/09/13 23:03:43;;;;;;;3.30;3.00;;;;;;;20.01;59.52;99040.16;1716744;114;34931;-79
2022/09/13 23:07:26;;;;;;;3.08;2.87;;;;;;;20.01;59.64;99032.66;1724996;113;25876;-80
2022/09/13 23:21:30;;;;;;;2.67;2.47;;;;;;;20.02;59.91;99031.77;1735558;112;25884;-79
2022/09/13 23:25:38;;;;;;;2.58;2.37;;;;;;;20.03;60.00;99035.66;1749567;111;26050;-79
2022/09/13 23:30:02;;;;;;;;;;;;;;;;;;;;;
2022/09/13 23:35:03;;;;;;;2.00;1.90;;;;;;;19.99;60.17;99023.94;1910755;103;25839;-81
2022/09/13 23:42:58;;;;;;;1.67;1.57;;;;;;;19.97;60.29;99035.88;1934069;102;25852;-79
2022/09/13 23:46:27;;;;;;;1.35;1.20;;;;;;;19.97;60.34;99035.88;1933006;102;26155;-79
2022/09/13 23:50:14;;;;;;;1.82;0.93;;;;;;;19.96;60.42;99041.23;1906471;102;25955;-79
2022/09/13 23:53:56;;;;;;;;;;;;;;;;;;;;;
